createdAt,value
2023-02-27T00:00:53.568Z,-2.40
2023-02-27T00:03:58.048Z,-2.60
2023-02-27T00:07:02.504Z,-2.60
2023-02-27T00:10:08.408Z,-2.70
2023-02-27T00:13:12.737Z,-2.80
2023-02-27T00:16:17.233Z,-2.80
2023-02-27T00:19:21.798Z,-2.80
2023-02-27T00:22:27.465Z,-2.80
2023-02-27T00:25:33.336Z,-2.60
2023-02-27T00:28:38.376Z,-2.50
2023-02-27T00:31:42.992Z,-2.50
2023-02-27T00:34:47.576Z,-2.70
2023-02-27T00:37:51.743Z,-2.70
2023-02-27T00:40:56.132Z,-2.60
2023-02-27T00:44:00.663Z,-2.50
2023-02-27T00:47:05.441Z,-2.40
2023-02-27T00:50:11.220Z,-2.40
2023-02-27T00:53:15.651Z,-2.30
2023-02-27T00:56:20.096Z,-2.50
2023-02-27T00:59:24.579Z,-2.60
2023-02-27T01:02:30.681Z,-2.80
2023-02-27T01:05:35.230Z,-2.60
2023-02-27T01:08:40.135Z,-2.70
2023-02-27T01:11:44.105Z,-2.60
2023-02-27T01:14:48.226Z,-2.70
2023-02-27T01:17:55.198Z,-2.60
2023-02-27T01:20:59.668Z,-2.80
2023-02-27T01:24:04.468Z,-3.00
2023-02-27T01:27:08.888Z,-2.90
2023-02-27T01:30:16.163Z,-2.90
2023-02-27T01:33:22.209Z,-2.80
2023-02-27T01:36:26.558Z,-2.80
2023-02-27T01:39:32.848Z,-2.90
2023-02-27T01:42:37.711Z,-2.90
2023-02-27T01:45:44.426Z,-2.90
2023-02-27T01:48:49.016Z,-3.10
2023-02-27T01:52:06.588Z,-3.00
2023-02-27T01:55:13.251Z,-2.80
2023-02-27T01:58:17.986Z,-2.80
2023-02-27T02:01:22.998Z,-2.80
2023-02-27T02:04:35.683Z,-2.80
2023-02-27T02:07:41.833Z,-2.80
2023-02-27T02:10:47.994Z,-2.70
2023-02-27T02:13:57.711Z,-2.80
2023-02-27T02:17:40.232Z,-2.80
2023-02-27T02:21:19.866Z,-2.80
2023-02-27T02:24:46.317Z,-3.10
2023-02-27T02:28:09.967Z,-3.00
2023-02-27T02:31:35.222Z,-3.00
2023-02-27T02:35:17.238Z,-2.90
2023-02-27T02:38:55.411Z,-2.70
2023-02-27T02:42:23.593Z,-2.70
2023-02-27T02:45:39.104Z,-2.80
2023-02-27T02:48:46.261Z,-2.70
2023-02-27T02:52:10.832Z,-2.90
2023-02-27T02:55:32.293Z,-2.80
2023-02-27T02:58:49.143Z,-2.70
2023-02-27T03:02:02.561Z,-2.80
2023-02-27T03:05:18.842Z,-2.80
2023-02-27T03:08:28.605Z,-3.00
2023-02-27T03:11:38.025Z,-2.90
2023-02-27T03:14:51.906Z,-3.00
2023-02-27T03:18:08.306Z,-3.00
2023-02-27T03:21:19.355Z,-3.10
2023-02-27T03:24:30.132Z,-3.00
2023-02-27T03:27:40.646Z,-3.00
2023-02-27T03:30:56.177Z,-3.10
2023-02-27T03:34:17.749Z,-3.10
2023-02-27T03:37:49.286Z,-3.00
2023-02-27T03:41:13.437Z,-3.10
2023-02-27T03:44:28.825Z,-3.20
2023-02-27T03:47:34.419Z,-3.10
2023-02-27T03:50:39.203Z,-3.00
2023-02-27T03:53:49.724Z,-3.10
2023-02-27T03:56:57.552Z,-3.50
2023-02-27T04:00:05.407Z,-3.40
2023-02-27T04:03:17.989Z,-3.30
2023-02-27T04:06:40.665Z,-3.30
2023-02-27T04:10:14.915Z,-3.50
2023-02-27T04:13:38.155Z,-3.60
2023-02-27T04:17:00.606Z,-3.80
2023-02-27T04:20:20.779Z,-3.70
2023-02-27T04:23:35.680Z,-3.80
2023-02-27T04:27:09.707Z,-3.60
2023-02-27T04:30:36.809Z,-3.60
2023-02-27T04:33:54.766Z,-3.20
2023-02-27T04:37:17.076Z,-2.90
2023-02-27T04:40:28.270Z,-2.80
2023-02-27T04:43:34.694Z,-2.60
2023-02-27T04:46:42.952Z,-2.40
2023-02-27T04:49:53.179Z,-2.30
2023-02-27T04:53:08.979Z,-2.40
2023-02-27T04:56:15.995Z,-2.40
2023-02-27T04:59:25.930Z,-2.60
2023-02-27T05:02:36.750Z,-2.60
2023-02-27T05:05:43.786Z,-2.60
2023-02-27T05:09:16.447Z,-2.40
2023-02-27T05:12:34.022Z,-2.30
2023-02-27T05:15:48.615Z,-2.10
2023-02-27T05:18:54.361Z,-2.00
2023-02-27T05:22:11.099Z,-1.90
2023-02-27T05:25:15.282Z,-1.90
2023-02-27T05:28:26.253Z,-1.90
2023-02-27T05:31:43.756Z,-1.90
2023-02-27T05:35:03.123Z,-1.80
2023-02-27T05:38:20.328Z,-1.70
2023-02-27T05:41:50.580Z,-1.70
2023-02-27T05:45:11.032Z,-1.50
2023-02-27T05:48:20.752Z,-1.50
2023-02-27T05:51:29.151Z,-1.30
2023-02-27T05:54:39.946Z,-1.40
2023-02-27T05:57:53.929Z,-1.30
2023-02-27T06:01:03.654Z,-1.30
2023-02-27T06:04:07.895Z,-1.20
2023-02-27T06:07:14.757Z,-1.10
2023-02-27T06:10:20.611Z,-1.00
2023-02-27T06:13:26.247Z,-0.90
2023-02-27T06:16:30.821Z,-0.90
2023-02-27T06:19:35.418Z,-0.90
2023-02-27T06:22:39.840Z,-0.80
2023-02-27T06:25:44.156Z,-0.60
2023-02-27T06:28:48.421Z,-0.70
2023-02-27T06:31:52.904Z,-0.60
2023-02-27T06:34:57.160Z,-0.50
2023-02-27T06:38:01.472Z,-0.30
2023-02-27T06:41:05.786Z,-0.30
2023-02-27T06:44:10.020Z,-0.20
2023-02-27T06:47:14.620Z,-0.40
2023-02-27T06:50:19.129Z,-0.20
2023-02-27T06:53:24.953Z,-0.20
2023-02-27T06:56:29.245Z,-0.30
2023-02-27T06:59:33.760Z,-0.20
2023-02-27T07:02:38.813Z,-0.10
2023-02-27T07:05:43.682Z,-0.10
2023-02-27T07:08:53.987Z,0.00
2023-02-27T07:12:10.809Z,0.00
2023-02-27T07:15:15.432Z,0.10
2023-02-27T07:18:19.940Z,0.30
2023-02-27T07:21:24.812Z,0.20
2023-02-27T07:24:28.958Z,0.30
2023-02-27T07:27:33.665Z,0.40
2023-02-27T07:30:37.745Z,0.40
2023-02-27T07:33:42.163Z,0.60
2023-02-27T07:36:46.498Z,0.60
2023-02-27T07:39:51.152Z,0.60
2023-02-27T07:42:55.705Z,0.60
2023-02-27T07:46:00.207Z,0.80
2023-02-27T07:49:04.460Z,0.90
2023-02-27T07:52:09.054Z,1.10
2023-02-27T07:55:14.284Z,1.00
2023-02-27T07:58:18.981Z,1.20
2023-02-27T08:01:23.603Z,1.20
2023-02-27T08:04:28.074Z,1.10
2023-02-27T08:07:32.793Z,1.30
2023-02-27T08:10:37.725Z,1.50
2023-02-27T08:13:59.615Z,1.70
2023-02-27T08:17:05.271Z,1.90
2023-02-27T08:20:11.741Z,2.10
2023-02-27T08:23:15.943Z,2.40
2023-02-27T08:26:21.254Z,2.50
2023-02-27T08:29:26.975Z,2.50
2023-02-27T08:32:31.355Z,2.60
2023-02-27T08:35:35.948Z,2.70
2023-02-27T08:38:40.546Z,2.80
2023-02-27T08:41:45.214Z,2.90
2023-02-27T08:44:50.510Z,3.10
2023-02-27T08:47:54.872Z,3.20
2023-02-27T08:50:59.196Z,3.30
2023-02-27T08:54:03.976Z,3.50
2023-02-27T08:57:08.469Z,3.60
2023-02-27T09:00:14.707Z,3.80
2023-02-27T09:03:18.924Z,3.80
2023-02-27T09:06:25.908Z,4.00
2023-02-27T09:09:30.816Z,4.10
2023-02-27T09:12:35.199Z,4.30
2023-02-27T09:15:39.978Z,4.50
2023-02-27T09:18:44.563Z,4.40
2023-02-27T09:21:49.152Z,4.60
2023-02-27T09:24:53.467Z,4.80
2023-02-27T09:27:58.569Z,5.00
2023-02-27T09:31:05.852Z,5.20
2023-02-27T09:34:10.293Z,5.30
2023-02-27T09:37:15.925Z,5.30
2023-02-27T09:40:30.202Z,5.30
2023-02-27T09:43:47.610Z,5.40
2023-02-27T09:46:53.505Z,5.70
2023-02-27T09:50:03.824Z,5.70
2023-02-27T09:53:42.281Z,5.70
2023-02-27T09:56:58.595Z,5.90
2023-02-27T10:00:11.812Z,5.60
2023-02-27T10:03:54.879Z,6.00
2023-02-27T10:07:17.495Z,6.20
2023-02-27T10:11:03.827Z,5.80
2023-02-27T10:14:26.306Z,5.70
2023-02-27T10:17:41.661Z,6.30
2023-02-27T10:20:56.383Z,6.40
2023-02-27T10:24:31.074Z,6.60
2023-02-27T10:27:35.444Z,7.10
2023-02-27T10:30:41.523Z,8.20
2023-02-27T10:33:48.339Z,8.70
2023-02-27T10:36:53.563Z,8.00
2023-02-27T10:40:01.206Z,8.10
2023-02-27T10:43:07.123Z,7.40
2023-02-27T10:46:23.184Z,7.60
2023-02-27T10:49:32.082Z,8.30
2023-02-27T10:52:49.527Z,8.20
2023-02-27T10:56:06.947Z,8.20
2023-02-27T10:59:20.800Z,8.50
2023-02-27T11:02:43.604Z,9.10
2023-02-27T11:06:14.266Z,10.70
2023-02-27T11:09:21.856Z,11.50
2023-02-27T11:12:32.641Z,11.50
2023-02-27T11:15:38.614Z,10.70
2023-02-27T11:18:48.276Z,10.60
2023-02-27T11:22:07.234Z,10.60
2023-02-27T11:25:22.383Z,12.40
2023-02-27T11:28:30.157Z,13.30
2023-02-27T11:31:36.691Z,11.70
2023-02-27T11:34:52.218Z,9.70
2023-02-27T11:38:02.124Z,8.60
2023-02-27T11:41:08.679Z,8.20
2023-02-27T11:44:17.846Z,7.90
2023-02-27T11:47:35.742Z,7.80
2023-02-27T11:51:13.182Z,8.50
2023-02-27T11:54:27.149Z,8.60
2023-02-27T11:57:38.042Z,8.70
2023-02-27T12:00:51.222Z,8.40
2023-02-27T12:04:26.958Z,8.40
2023-02-27T12:08:05.580Z,8.20
2023-02-27T12:11:21.604Z,8.30
2023-02-27T12:14:28.193Z,7.80
2023-02-27T12:17:45.759Z,8.30
2023-02-27T12:21:13.516Z,8.20
2023-02-27T12:24:52.832Z,7.90
2023-02-27T12:28:26.720Z,8.00
2023-02-27T12:31:36.852Z,8.00
2023-02-27T12:34:53.343Z,7.80
2023-02-27T12:37:58.313Z,7.50
2023-02-27T12:41:37.325Z,7.60
2023-02-27T12:45:17.669Z,7.50
2023-02-27T12:48:23.169Z,7.20
2023-02-27T12:51:46.188Z,7.20
2023-02-27T12:55:03.336Z,7.30
2023-02-27T12:58:24.179Z,7.30
2023-02-27T13:01:37.923Z,7.40
2023-02-27T13:04:48.593Z,7.30
2023-02-27T13:08:25.235Z,7.50
2023-02-27T13:11:32.464Z,7.50
2023-02-27T13:14:50.208Z,7.20
2023-02-27T13:18:07.822Z,7.40
2023-02-27T13:21:19.490Z,7.50
2023-02-27T13:24:29.154Z,7.50
2023-02-27T13:27:38.756Z,7.60
2023-02-27T13:30:47.747Z,7.50
2023-02-27T13:34:02.565Z,7.50
2023-02-27T13:37:08.829Z,7.20
2023-02-27T13:40:37.835Z,6.90
2023-02-27T13:43:51.817Z,6.60
2023-02-27T13:47:28.911Z,6.50
2023-02-27T13:50:33.603Z,6.30
2023-02-27T13:53:38.536Z,6.40
2023-02-27T13:56:59.766Z,6.30
2023-02-27T14:00:19.609Z,6.30
2023-02-27T14:03:29.748Z,6.60
2023-02-27T14:06:45.219Z,6.70
2023-02-27T14:09:59.993Z,6.50
2023-02-27T14:13:05.294Z,6.40
2023-02-27T14:16:11.411Z,6.40
2023-02-27T14:19:16.308Z,6.40
2023-02-27T14:22:29.687Z,6.30
2023-02-27T14:25:52.269Z,6.30
2023-02-27T14:28:58.087Z,6.30
2023-02-27T14:32:09.153Z,6.30
2023-02-27T14:35:15.983Z,6.30
2023-02-27T14:38:21.316Z,6.30
2023-02-27T14:41:28.905Z,6.30
2023-02-27T14:44:43.756Z,6.40
2023-02-27T14:47:48.635Z,6.30
2023-02-27T14:50:54.509Z,6.10
2023-02-27T14:54:15.423Z,6.00
2023-02-27T14:57:24.210Z,5.90
2023-02-27T15:00:53.570Z,5.90
2023-02-27T15:03:58.901Z,6.00
2023-02-27T15:07:04.111Z,6.00
2023-02-27T15:10:10.627Z,5.90
2023-02-27T15:13:31.942Z,5.90
2023-02-27T15:16:40.582Z,5.70
2023-02-27T15:19:56.930Z,5.80
2023-02-27T15:23:19.920Z,5.90
2023-02-27T15:26:25.342Z,5.80
2023-02-27T15:29:43.262Z,5.70
2023-02-27T15:32:47.857Z,5.80
2023-02-27T15:35:52.395Z,5.70
2023-02-27T15:39:28.434Z,5.80
2023-02-27T15:42:37.358Z,5.70
2023-02-27T15:45:42.630Z,5.80
2023-02-27T15:48:47.634Z,5.60
2023-02-27T15:52:19.688Z,5.60
2023-02-27T15:55:29.190Z,5.60
2023-02-27T15:58:50.794Z,5.60
2023-02-27T16:01:55.615Z,5.70
2023-02-27T16:05:00.431Z,5.70
2023-02-27T16:08:06.802Z,5.70
2023-02-27T16:11:21.953Z,5.70
2023-02-27T16:14:43.080Z,5.80
2023-02-27T16:17:55.549Z,5.80
2023-02-27T16:21:21.513Z,5.60
2023-02-27T16:24:31.827Z,5.70
2023-02-27T16:27:36.321Z,5.60
2023-02-27T16:30:42.173Z,5.70
2023-02-27T16:33:46.989Z,5.70
2023-02-27T16:36:55.082Z,5.60
2023-02-27T16:39:59.331Z,5.70
2023-02-27T16:43:03.839Z,5.70
2023-02-27T16:46:08.380Z,5.60
2023-02-27T16:49:27.914Z,5.60
2023-02-27T16:52:32.475Z,5.70
2023-02-27T16:55:41.704Z,5.60
2023-02-27T16:58:46.554Z,5.50
2023-02-27T17:01:50.952Z,5.40
2023-02-27T17:04:55.578Z,5.50
2023-02-27T17:08:00.465Z,5.50
2023-02-27T17:11:05.519Z,5.50
2023-02-27T17:14:09.925Z,5.50
2023-02-27T17:17:14.183Z,5.50
2023-02-27T17:20:18.844Z,5.40
2023-02-27T17:23:23.745Z,5.50
2023-02-27T17:26:28.988Z,5.40
2023-02-27T17:29:33.768Z,5.40
2023-02-27T17:32:38.365Z,5.40
2023-02-27T17:35:42.823Z,5.30
2023-02-27T17:38:48.810Z,5.30
2023-02-27T17:41:54.322Z,5.40
2023-02-27T17:44:58.701Z,5.40
2023-02-27T17:48:03.276Z,5.30
2023-02-27T17:51:10.381Z,5.20
2023-02-27T17:54:15.048Z,5.30
2023-02-27T17:57:19.239Z,5.20
2023-02-27T18:00:23.724Z,5.30
2023-02-27T18:03:27.960Z,5.20
2023-02-27T18:06:32.285Z,5.20
2023-02-27T18:09:36.712Z,5.10
2023-02-27T18:12:41.292Z,5.00
2023-02-27T18:15:45.799Z,4.90
2023-02-27T18:18:50.605Z,5.10
2023-02-27T18:21:55.017Z,5.10
2023-02-27T18:24:59.157Z,5.00
2023-02-27T18:28:04.189Z,4.90
2023-02-27T18:31:18.572Z,5.00
2023-02-27T18:34:23.613Z,5.00
2023-02-27T18:37:27.947Z,5.00
2023-02-27T18:40:32.559Z,5.10
2023-02-27T18:43:38.792Z,5.00
2023-02-27T18:46:43.775Z,5.10
2023-02-27T18:49:48.137Z,5.00
2023-02-27T18:52:54.208Z,5.10
2023-02-27T18:56:03.323Z,5.00
2023-02-27T18:59:08.028Z,5.00
2023-02-27T19:02:14.900Z,5.10
2023-02-27T19:05:19.676Z,5.00
2023-02-27T19:08:30.393Z,5.00
2023-02-27T19:11:35.598Z,5.00
2023-02-27T19:14:40.629Z,5.10
2023-02-27T19:17:45.124Z,5.20
2023-02-27T19:20:49.646Z,5.20
2023-02-27T19:23:54.345Z,5.20
2023-02-27T19:26:59.058Z,5.20
2023-02-27T19:30:03.625Z,5.00
2023-02-27T19:33:08.504Z,5.00
2023-02-27T19:36:15.753Z,5.00
2023-02-27T19:39:20.009Z,4.90
2023-02-27T19:42:25.857Z,4.90
2023-02-27T19:45:30.154Z,4.90
2023-02-27T19:48:34.936Z,4.80
2023-02-27T19:51:40.957Z,4.80
2023-02-27T19:54:45.360Z,4.70
2023-02-27T19:57:49.868Z,4.80
2023-02-27T20:00:54.670Z,4.70
2023-02-27T20:03:59.944Z,4.70
2023-02-27T20:07:04.155Z,4.70
2023-02-27T20:10:09.573Z,4.70
2023-02-27T20:13:13.962Z,4.70
2023-02-27T20:16:22.212Z,4.60
2023-02-27T20:19:26.754Z,4.30
2023-02-27T20:22:32.706Z,4.30
2023-02-27T20:25:37.150Z,4.30
2023-02-27T20:28:41.481Z,4.30
2023-02-27T20:31:48.177Z,4.30
2023-02-27T20:34:55.679Z,4.50
2023-02-27T20:38:00.120Z,4.50
2023-02-27T20:41:05.436Z,4.40
2023-02-27T20:44:11.337Z,4.40
2023-02-27T20:47:16.385Z,4.10
2023-02-27T20:50:21.032Z,4.10
2023-02-27T20:53:26.292Z,4.00
2023-02-27T20:56:32.085Z,4.00
2023-02-27T20:59:36.090Z,4.00
2023-02-27T21:02:40.655Z,4.00
2023-02-27T21:05:49.326Z,4.00
2023-02-27T21:08:56.296Z,4.10
2023-02-27T21:12:01.027Z,4.30
2023-02-27T21:15:06.027Z,4.30
2023-02-27T21:18:11.684Z,4.20
2023-02-27T21:21:17.183Z,4.20
2023-02-27T21:24:21.539Z,4.30
2023-02-27T21:27:25.973Z,4.20
2023-02-27T21:30:30.917Z,4.20
2023-02-27T21:33:35.639Z,4.30
2023-02-27T21:36:42.446Z,4.10
2023-02-27T21:39:52.289Z,4.20
2023-02-27T21:42:56.701Z,4.20
2023-02-27T21:46:20.857Z,4.20
2023-02-27T21:49:27.770Z,4.10
2023-02-27T21:52:33.696Z,4.10
2023-02-27T21:55:38.205Z,4.10
2023-02-27T21:58:42.393Z,4.10
2023-02-27T22:01:48.207Z,4.10
2023-02-27T22:04:53.141Z,4.10
2023-02-27T22:07:57.871Z,4.10
2023-02-27T22:11:03.559Z,4.00
2023-02-27T22:14:09.722Z,4.10
2023-02-27T22:17:14.035Z,4.00
2023-02-27T22:20:18.646Z,4.00
2023-02-27T22:23:23.279Z,4.10
2023-02-27T22:26:29.118Z,4.10
2023-02-27T22:29:33.666Z,4.10
2023-02-27T22:32:40.979Z,4.20
2023-02-27T22:35:45.358Z,4.10
2023-02-27T22:38:50.558Z,4.20
2023-02-27T22:41:56.757Z,4.10
2023-02-27T22:45:01.544Z,4.20
2023-02-27T22:48:06.556Z,4.20
2023-02-27T22:51:14.318Z,4.20
2023-02-27T22:54:20.987Z,4.20
2023-02-27T22:57:25.394Z,4.10
2023-02-27T23:00:29.694Z,4.20
2023-02-27T23:03:34.063Z,4.20
2023-02-27T23:06:40.487Z,4.10
2023-02-27T23:09:44.783Z,4.10
2023-02-27T23:12:49.213Z,3.90
2023-02-27T23:15:54.637Z,3.80
2023-02-27T23:18:59.963Z,3.90
2023-02-27T23:22:05.178Z,4.00
2023-02-27T23:25:11.724Z,4.10
2023-02-27T23:28:16.300Z,3.90
2023-02-27T23:31:20.639Z,4.00
2023-02-27T23:34:25.054Z,4.10
2023-02-27T23:37:29.315Z,4.00
2023-02-27T23:40:35.378Z,3.90
2023-02-27T23:43:58.662Z,3.90
2023-02-27T23:47:03.215Z,3.90
2023-02-27T23:50:08.498Z,3.90
2023-02-27T23:53:13.564Z,3.90
2023-02-27T23:56:22.425Z,3.90
2023-02-27T23:59:28.165Z,3.70
